Battle Harbour, Canada
Current Conditions -  °F | °C
As of 5:00 PM on Tuesday 21 Oct 2014 (Local Time) from CYMH Reporting Station
Overcast Overcast  
Wind Chill: 35°   Ceiling: 8500
Heat Index: 41°   Visibility: 9mi
Dew Point: 34°   Wind: 10mph
Humidity: 76%   Direction: 350°N
Pressure: 30.01"   Gusts: NA
Location:  52.27°N, 55.58°W
Report Text: CYMH 212000Z AUTO 35009KT 9SM OVC085 05/01 A3001 RMK SLP162
Loading
Personal Weather Stations






























Interactive Weather Map New forecast layout! Learn more

10-Day Weather Forecast

Advertisements
Track Severe Weather on mobile